createdAt,value
2023-02-16T00:02:32.846Z,48.74
2023-02-16T00:05:31.286Z,49.50
2023-02-16T00:08:06.525Z,49.41
2023-02-16T00:11:10.393Z,49.37
2023-02-16T00:13:57.676Z,49.33
2023-02-16T00:16:39.205Z,49.07
2023-02-16T00:19:42.817Z,49.40
2023-02-16T00:22:19.515Z,49.17
2023-02-16T00:24:56.057Z,49.39
2023-02-16T00:27:39.928Z,49.13
2023-02-16T00:30:26.295Z,49.01
2023-02-16T00:33:24.270Z,49.36
2023-02-16T00:36:21.744Z,49.24
2023-02-16T00:39:25.691Z,49.39
2023-02-16T00:42:27.128Z,49.22
2023-02-16T00:45:30.132Z,49.45
2023-02-16T00:48:12.591Z,49.17
2023-02-16T00:50:58.480Z,49.02
2023-02-16T00:53:38.226Z,48.92
2023-02-16T00:56:35.361Z,48.95
2023-02-16T00:59:31.566Z,48.97
2023-02-16T01:02:09.164Z,48.93
2023-02-16T01:04:59.259Z,49.09
2023-02-16T01:07:59.400Z,49.11
2023-02-16T01:11:10.920Z,49.06
2023-02-16T01:13:58.649Z,49.23
2023-02-16T01:16:57.602Z,49.40
2023-02-16T01:19:47.687Z,49.20
2023-02-16T01:22:40.016Z,49.24
2023-02-16T01:25:21.420Z,49.27
2023-02-16T01:28:16.521Z,49.53
2023-02-16T01:31:14.483Z,49.55
2023-02-16T01:33:57.147Z,49.47
2023-02-16T01:36:42.299Z,49.59
2023-02-16T01:39:27.347Z,49.75
2023-02-16T01:42:29.907Z,49.40
2023-02-16T01:46:00.683Z,49.41
2023-02-16T01:48:41.272Z,49.40
2023-02-16T01:51:51.284Z,49.73
2023-02-16T01:54:49.789Z,49.56
2023-02-16T01:57:36.086Z,49.94
2023-02-16T02:00:52.132Z,49.89
2023-02-16T02:04:11.789Z,49.62
2023-02-16T02:06:52.201Z,49.75
2023-02-16T02:09:44.337Z,49.75
2023-02-16T02:12:59.254Z,49.95
2023-02-16T02:15:46.743Z,50.09
2023-02-16T02:18:49.070Z,50.27
2023-02-16T02:22:18.386Z,49.92
2023-02-16T02:25:22.239Z,50.19
2023-02-16T02:28:31.342Z,50.09
2023-02-16T02:31:39.150Z,50.17
2023-02-16T02:34:39.251Z,50.20
2023-02-16T02:37:50.917Z,50.41
2023-02-16T02:40:55.922Z,50.68
2023-02-16T02:44:02.287Z,50.60
2023-02-16T02:47:07.088Z,50.67
2023-02-16T02:50:04.010Z,50.71
2023-02-16T02:52:50.386Z,50.50
2023-02-16T02:56:07.097Z,50.56
2023-02-16T03:02:41.953Z,50.63
2023-02-16T03:05:13.977Z,50.46
2023-02-16T03:07:47.779Z,49.81
2023-02-16T03:10:45.094Z,50.41
2023-02-16T03:13:38.513Z,50.45
2023-02-16T03:16:13.963Z,50.48
2023-02-16T03:19:02.754Z,50.43
2023-02-16T03:22:04.905Z,50.65
2023-02-16T03:24:52.434Z,50.33
2023-02-16T03:27:56.521Z,50.39
2023-02-16T03:30:37.207Z,50.14
2023-02-16T03:33:11.419Z,50.27
2023-02-16T03:35:40.219Z,50.26
2023-02-16T03:38:09.419Z,50.18
2023-02-16T03:40:45.152Z,50.81
2023-02-16T03:43:19.645Z,50.53
2023-02-16T03:46:04.863Z,50.31
2023-02-16T03:48:32.881Z,50.38
2023-02-16T03:51:04.526Z,50.08
2023-02-16T03:53:39.540Z,50.16
2023-02-16T03:56:12.890Z,50.09
2023-02-16T03:58:41.028Z,49.96
2023-02-16T04:01:09.442Z,50.32
2023-02-16T04:03:41.080Z,50.46
2023-02-16T04:06:10.838Z,50.21
2023-02-16T04:08:39.771Z,49.96
2023-02-16T04:11:31.420Z,50.21
2023-02-16T04:14:07.076Z,49.92
2023-02-16T04:16:40.712Z,49.84
2023-02-16T04:19:08.868Z,50.01
2023-02-16T04:21:39.787Z,50.03
2023-02-16T04:24:14.316Z,50.20
2023-02-16T04:26:46.374Z,49.89
2023-02-16T04:29:17.577Z,49.91
2023-02-16T04:31:48.858Z,49.79
2023-02-16T04:34:42.844Z,50.06
2023-02-16T04:37:12.087Z,50.14
2023-02-16T04:39:41.996Z,50.14
2023-02-16T04:42:18.891Z,50.32
2023-02-16T04:44:54.867Z,50.07
2023-02-16T04:47:30.615Z,50.02
2023-02-16T04:50:04.709Z,49.74
2023-02-16T04:52:59.511Z,50.07
2023-02-16T04:55:32.124Z,49.87
2023-02-16T04:58:25.208Z,49.96
2023-02-16T05:01:04.523Z,49.90
2023-02-16T05:03:37.593Z,50.08
2023-02-16T05:06:12.297Z,50.23
2023-02-16T05:08:44.715Z,49.94
2023-02-16T05:11:37.509Z,50.06
2023-02-16T05:14:24.058Z,49.81
2023-02-16T05:16:55.624Z,50.04
2023-02-16T05:19:23.529Z,50.12
2023-02-16T05:22:04.094Z,50.57
2023-02-16T05:24:33.291Z,50.57
2023-02-16T05:27:13.040Z,50.29
2023-02-16T05:29:42.391Z,50.03
2023-02-16T05:32:32.456Z,50.38
2023-02-16T05:35:00.911Z,50.58
2023-02-16T05:37:29.058Z,50.22
2023-02-16T05:39:57.417Z,50.17
2023-02-16T05:42:28.462Z,50.08
2023-02-16T05:44:59.747Z,49.82
2023-02-16T05:47:28.128Z,50.16
2023-02-16T05:50:01.484Z,49.94
2023-02-16T05:52:29.771Z,50.07
2023-02-16T05:55:00.259Z,49.66
2023-02-16T05:57:28.728Z,49.64
2023-02-16T05:59:57.019Z,50.19
2023-02-16T06:02:30.735Z,49.92
2023-02-16T06:05:03.301Z,49.96
2023-02-16T06:07:38.778Z,49.72
2023-02-16T06:10:14.869Z,49.65
2023-02-16T06:12:51.880Z,49.89
2023-02-16T06:15:23.777Z,50.05
2023-02-16T06:18:01.499Z,50.26
2023-02-16T06:20:33.585Z,50.42
2023-02-16T06:23:11.748Z,50.21
2023-02-16T06:25:45.323Z,50.20
2023-02-16T06:30:55.032Z,50.09
2023-02-16T06:33:23.139Z,50.58
2023-02-16T06:35:52.222Z,50.72
2023-02-16T06:38:23.730Z,50.56
2023-02-16T06:40:55.698Z,50.29
2023-02-16T06:43:27.181Z,50.35
2023-02-16T06:45:56.457Z,50.21
2023-02-16T06:48:24.703Z,49.92
2023-02-16T06:50:53.312Z,50.10
2023-02-16T06:53:21.221Z,50.28
2023-02-16T06:55:54.963Z,50.50
2023-02-16T06:58:22.228Z,51.20
2023-02-16T07:00:50.198Z,50.42
2023-02-16T07:03:21.054Z,50.44
2023-02-16T07:05:50.049Z,50.38
2023-02-16T07:08:18.268Z,50.23
2023-02-16T07:10:51.311Z,50.04
2023-02-16T07:13:22.220Z,50.54
2023-02-16T07:15:53.222Z,50.64
2023-02-16T07:18:23.864Z,50.73
2023-02-16T07:20:55.030Z,50.84
2023-02-16T07:23:34.441Z,50.12
2023-02-16T07:26:04.995Z,50.07
2023-02-16T07:28:44.544Z,50.30
2023-02-16T07:31:16.817Z,49.97
2023-02-16T07:33:47.391Z,49.42
2023-02-16T07:36:29.448Z,49.96
2023-02-16T07:39:03.597Z,49.57
2023-02-16T07:41:34.630Z,49.49
2023-02-16T07:44:24.420Z,49.77
2023-02-16T07:49:56.624Z,49.53
2023-02-16T07:52:32.257Z,49.14
2023-02-16T07:55:18.755Z,49.37
2023-02-16T07:58:04.078Z,49.12
2023-02-16T08:03:47.459Z,49.60
2023-02-16T08:06:32.168Z,49.58
2023-02-16T08:09:15.509Z,49.23
2023-02-16T08:12:11.249Z,49.03
2023-02-16T08:15:08.387Z,48.76
2023-02-16T08:17:46.458Z,48.74
2023-02-16T08:20:45.170Z,48.81
2023-02-16T08:23:29.517Z,48.37
2023-02-16T08:25:59.545Z,48.32
2023-02-16T08:28:29.158Z,47.89
2023-02-16T08:34:12.422Z,47.08
2023-02-16T08:39:50.945Z,45.99
2023-02-16T08:42:30.082Z,45.93
2023-02-16T08:45:15.113Z,45.80
2023-02-16T08:47:44.938Z,45.89
2023-02-16T08:50:31.422Z,45.54
2023-02-16T08:53:30.930Z,45.55
2023-02-16T08:56:00.271Z,45.36
2023-02-16T08:58:28.250Z,45.56
2023-02-16T09:03:52.144Z,45.32
2023-02-16T09:06:23.356Z,45.08
2023-02-16T09:09:02.970Z,45.30
2023-02-16T09:11:55.588Z,44.88
2023-02-16T09:14:45.194Z,44.58
2023-02-16T09:17:24.017Z,44.49
2023-02-16T09:20:13.152Z,44.44
2023-02-16T09:22:55.951Z,44.29
2023-02-16T09:28:43.187Z,44.33
2023-02-16T09:31:48.897Z,44.39
2023-02-16T09:34:36.846Z,43.79
2023-02-16T09:37:29.688Z,43.64
2023-02-16T09:40:26.136Z,43.33
2023-02-16T09:43:30.043Z,43.46
2023-02-16T09:46:22.687Z,43.53
2023-02-16T09:48:58.884Z,43.56
2023-02-16T09:51:47.258Z,42.92
2023-02-16T09:54:35.186Z,42.72
2023-02-16T09:57:39.009Z,43.05
2023-02-16T10:00:45.611Z,42.47
2023-02-16T10:04:06.141Z,42.24
2023-02-16T10:07:02.453Z,42.45
2023-02-16T10:13:10.956Z,41.85
2023-02-16T10:15:44.533Z,41.50
2023-02-16T10:21:40.907Z,41.61
2023-02-16T10:27:13.106Z,41.80
2023-02-16T10:30:03.250Z,41.56
2023-02-16T10:33:16.185Z,41.38
2023-02-16T10:36:02.297Z,41.48
2023-02-16T10:42:10.143Z,41.63
2023-02-16T10:45:15.900Z,41.53
2023-02-16T10:48:19.189Z,41.60
2023-02-16T10:51:16.381Z,41.16
2023-02-16T10:54:02.925Z,41.59
2023-02-16T10:57:32.618Z,41.04
2023-02-16T11:03:48.390Z,41.20
2023-02-16T11:06:31.919Z,41.29
2023-02-16T11:09:18.884Z,40.70
2023-02-16T11:12:02.216Z,40.70
2023-02-16T11:14:42.266Z,40.90
2023-02-16T11:17:27.789Z,40.84
2023-02-16T11:20:26.066Z,40.53
2023-02-16T11:23:43.435Z,40.23
2023-02-16T11:26:12.391Z,40.68
2023-02-16T11:28:48.606Z,40.14
2023-02-16T11:31:40.340Z,40.54
2023-02-16T11:34:41.517Z,39.94
2023-02-16T11:37:28.287Z,40.43
2023-02-16T11:40:26.739Z,39.66
2023-02-16T11:42:58.008Z,40.37
2023-02-16T11:45:38.935Z,40.11
2023-02-16T11:48:13.025Z,40.45
2023-02-16T11:51:03.465Z,39.72
2023-02-16T11:53:39.006Z,40.11
2023-02-16T11:56:31.363Z,39.96
2023-02-16T11:59:29.327Z,40.00
2023-02-16T12:02:21.300Z,40.11
2023-02-16T12:05:17.610Z,39.71
2023-02-16T12:07:51.851Z,40.37
2023-02-16T12:10:39.207Z,40.23
2023-02-16T12:13:41.767Z,40.17
2023-02-16T12:16:52.498Z,39.68
2023-02-16T12:19:48.558Z,39.76
2023-02-16T12:22:49.372Z,40.00
2023-02-16T12:26:18.260Z,39.73
2023-02-16T12:29:27.740Z,39.95
2023-02-16T12:32:33.080Z,39.80
2023-02-16T12:35:39.760Z,39.43
2023-02-16T12:38:32.321Z,39.63
2023-02-16T12:41:42.099Z,39.54
2023-02-16T12:44:33.824Z,39.87
2023-02-16T12:47:20.953Z,40.29
2023-02-16T12:50:24.261Z,40.12
2023-02-16T12:53:38.843Z,40.23
2023-02-16T12:56:25.447Z,40.43
2023-02-16T12:59:15.079Z,40.07
2023-02-16T13:01:51.731Z,40.13
2023-02-16T13:04:37.196Z,39.85
2023-02-16T13:07:41.682Z,39.94
2023-02-16T13:10:34.940Z,40.21
2023-02-16T13:13:18.710Z,39.73
2023-02-16T13:16:45.448Z,39.54
2023-02-16T13:20:01.653Z,39.89
2023-02-16T13:23:17.267Z,40.21
2023-02-16T13:26:11.604Z,40.12
2023-02-16T13:29:29.817Z,40.80
2023-02-16T13:32:34.732Z,40.54
2023-02-16T13:35:26.753Z,40.33
2023-02-16T13:38:11.593Z,40.11
2023-02-16T13:41:03.963Z,39.77
2023-02-16T13:43:37.638Z,39.94
2023-02-16T13:46:16.780Z,39.80
2023-02-16T13:49:06.885Z,39.35
2023-02-16T13:51:50.928Z,39.23
2023-02-16T13:54:44.328Z,39.61
2023-02-16T13:58:03.658Z,39.20
2023-02-16T14:04:00.937Z,39.14
2023-02-16T14:09:48.963Z,39.05
2023-02-16T14:12:37.905Z,39.86
2023-02-16T14:18:52.302Z,39.77
2023-02-16T14:21:46.535Z,39.64
2023-02-16T14:24:53.397Z,40.33
2023-02-16T14:30:57.540Z,40.70
2023-02-16T14:37:38.728Z,41.24
2023-02-16T14:40:59.656Z,40.90
2023-02-16T14:43:57.113Z,42.82
2023-02-16T14:46:56.546Z,42.21
2023-02-16T14:50:04.060Z,43.26
2023-02-16T14:53:16.518Z,43.38
2023-02-16T14:56:37.649Z,43.45
2023-02-16T14:59:33.308Z,42.79
2023-02-16T15:02:54.389Z,43.42
2023-02-16T15:05:53.090Z,44.31
2023-02-16T15:08:55.466Z,43.36
2023-02-16T15:12:09.700Z,44.32
2023-02-16T15:14:43.729Z,44.21
2023-02-16T15:17:48.279Z,45.17
2023-02-16T15:20:52.916Z,45.09
2023-02-16T15:27:02.967Z,45.42
2023-02-16T15:29:39.644Z,44.90
2023-02-16T15:32:12.461Z,44.08
2023-02-16T15:34:53.012Z,44.45
2023-02-16T15:37:43.856Z,45.58
2023-02-16T15:40:34.877Z,44.80
2023-02-16T15:43:31.327Z,45.16
2023-02-16T15:46:07.329Z,44.93
2023-02-16T15:51:25.691Z,45.57
2023-02-16T15:54:25.851Z,45.87
2023-02-16T15:57:16.196Z,45.43
2023-02-16T15:59:48.331Z,45.37
2023-02-16T16:02:16.075Z,45.48
2023-02-16T16:05:04.671Z,45.42
2023-02-16T16:07:41.609Z,45.61
2023-02-16T16:10:37.218Z,45.71
2023-02-16T16:13:21.206Z,45.96
2023-02-16T16:15:56.067Z,44.99
2023-02-16T16:18:51.813Z,46.15
2023-02-16T16:21:45.027Z,46.78
2023-02-16T16:24:21.390Z,47.37
2023-02-16T16:27:14.623Z,47.20
2023-02-16T16:29:58.229Z,47.13
2023-02-16T16:32:39.610Z,46.94
2023-02-16T16:35:35.102Z,47.90
2023-02-16T16:38:28.788Z,47.51
2023-02-16T16:41:04.769Z,48.10
2023-02-16T16:46:47.197Z,48.28
2023-02-16T16:49:23.839Z,47.62
2023-02-16T16:52:16.397Z,48.15
2023-02-16T16:54:54.782Z,48.71
2023-02-16T16:57:55.740Z,48.68
2023-02-16T17:00:42.625Z,48.99
2023-02-16T17:03:30.472Z,49.55
2023-02-16T17:06:11.612Z,49.18
2023-02-16T17:08:56.461Z,48.89
2023-02-16T17:11:39.796Z,49.65
2023-02-16T17:17:09.492Z,49.33
2023-02-16T17:19:42.506Z,49.71
2023-02-16T17:22:26.950Z,49.50
2023-02-16T17:24:55.383Z,49.02
2023-02-16T17:27:33.385Z,49.25
2023-02-16T17:30:17.526Z,48.89
2023-02-16T17:32:53.766Z,49.42
2023-02-16T17:35:26.029Z,50.46
2023-02-16T17:37:58.777Z,49.40
2023-02-16T17:40:27.724Z,49.48
2023-02-16T17:43:02.262Z,50.10
2023-02-16T17:45:33.136Z,50.10
2023-02-16T17:50:57.298Z,49.35
2023-02-16T17:53:46.568Z,49.95
2023-02-16T17:56:26.575Z,50.12
2023-02-16T17:59:05.754Z,49.90
2023-02-16T18:01:39.318Z,49.84
2023-02-16T18:04:16.263Z,50.24
2023-02-16T18:07:03.756Z,50.47
2023-02-16T18:09:41.306Z,50.92
2023-02-16T18:15:29.724Z,52.33
2023-02-16T18:18:05.417Z,51.27
2023-02-16T18:20:49.379Z,51.75
2023-02-16T18:23:23.964Z,52.03
2023-02-16T18:26:10.788Z,51.92
2023-02-16T18:31:31.656Z,52.06
2023-02-16T18:34:06.278Z,51.63
2023-02-16T18:36:44.315Z,51.67
2023-02-16T18:39:28.059Z,52.45
2023-02-16T18:41:55.805Z,52.65
2023-02-16T18:44:28.500Z,52.33
2023-02-16T18:47:02.136Z,53.02
2023-02-16T18:52:19.171Z,53.57
2023-02-16T18:54:50.022Z,52.43
2023-02-16T18:57:29.630Z,53.93
2023-02-16T19:00:00.353Z,53.53
2023-02-16T19:02:32.920Z,53.09
2023-02-16T19:05:09.822Z,52.70
2023-02-16T19:07:59.151Z,53.21
2023-02-16T19:10:33.605Z,52.61
2023-02-16T19:13:10.050Z,52.13
2023-02-16T19:15:44.058Z,52.76
2023-02-16T19:18:36.135Z,53.65
2023-02-16T19:21:10.432Z,54.45
2023-02-16T19:23:48.204Z,54.04
2023-02-16T19:26:29.636Z,55.98
2023-02-16T19:29:02.860Z,54.68
2023-02-16T19:31:37.669Z,55.24
2023-02-16T19:34:18.203Z,54.82
2023-02-16T19:37:00.777Z,56.71
2023-02-16T19:39:58.064Z,55.20
2023-02-16T19:42:40.509Z,56.03
2023-02-16T19:45:20.615Z,55.72
2023-02-16T19:48:04.578Z,54.98
2023-02-16T19:50:41.117Z,55.47
2023-02-16T19:56:27.494Z,55.09
2023-02-16T19:58:58.458Z,54.97
2023-02-16T20:01:51.049Z,55.16
2023-02-16T20:04:38.992Z,54.56
2023-02-16T20:10:09.721Z,53.99
2023-02-16T20:12:57.256Z,53.66
2023-02-16T20:15:28.709Z,53.80
2023-02-16T20:18:12.804Z,54.07
2023-02-16T20:21:33.739Z,53.74
2023-02-16T20:24:15.323Z,53.43
2023-02-16T20:27:06.554Z,53.55
2023-02-16T20:29:42.327Z,53.16
2023-02-16T20:32:32.911Z,53.49
2023-02-16T20:35:17.144Z,53.88
2023-02-16T20:37:54.459Z,53.20
2023-02-16T20:40:39.918Z,53.64
2023-02-16T20:43:23.074Z,53.27
2023-02-16T20:46:09.911Z,52.99
2023-02-16T20:48:43.306Z,52.87
2023-02-16T20:51:24.626Z,53.15
2023-02-16T20:54:05.818Z,53.46
2023-02-16T20:56:40.099Z,53.44
2023-02-16T20:59:44.964Z,53.43
2023-02-16T21:02:22.892Z,53.13
2023-02-16T21:04:59.043Z,53.40
2023-02-16T21:07:37.801Z,52.99
2023-02-16T21:10:28.944Z,53.39
2023-02-16T21:13:22.010Z,52.86
2023-02-16T21:16:00.578Z,52.80
2023-02-16T21:18:40.630Z,52.93
2023-02-16T21:21:54.399Z,53.19
2023-02-16T21:24:31.416Z,53.24
2023-02-16T21:27:03.332Z,52.72
2023-02-16T21:29:42.087Z,52.63
2023-02-16T21:32:34.758Z,52.99
2023-02-16T21:35:26.263Z,52.97
2023-02-16T21:38:04.768Z,53.11
2023-02-16T21:44:15.065Z,52.98
2023-02-16T21:46:47.954Z,52.98
2023-02-16T21:49:55.231Z,52.77
2023-02-16T21:52:59.004Z,52.82
2023-02-16T22:01:56.327Z,52.82
2023-02-16T22:04:34.007Z,52.44
2023-02-16T22:07:27.375Z,52.68
2023-02-16T22:10:32.215Z,52.68
2023-02-16T22:13:08.913Z,52.26
2023-02-16T22:15:43.221Z,52.52
2023-02-16T22:18:18.660Z,52.25
2023-02-16T22:20:57.704Z,52.29
2023-02-16T22:23:45.662Z,52.65
2023-02-16T22:26:54.307Z,52.47
2023-02-16T22:29:27.369Z,52.04
2023-02-16T22:31:59.907Z,52.31
2023-02-16T22:34:44.512Z,52.24
2023-02-16T22:37:14.671Z,52.47
2023-02-16T22:39:45.125Z,52.04
2023-02-16T22:42:12.425Z,51.84
2023-02-16T22:44:47.776Z,52.03
2023-02-16T22:47:20.930Z,51.97
2023-02-16T22:49:50.396Z,52.01
2023-02-16T22:55:10.860Z,52.06
2023-02-16T22:57:46.827Z,51.91
2023-02-16T23:00:17.759Z,52.20
2023-02-16T23:02:51.046Z,52.13
2023-02-16T23:05:23.845Z,52.34
2023-02-16T23:08:27.354Z,52.28
2023-02-16T23:11:09.556Z,52.40
2023-02-16T23:14:17.487Z,52.58
2023-02-16T23:17:00.573Z,52.44
2023-02-16T23:19:51.424Z,52.24
2023-02-16T23:22:58.822Z,52.13
2023-02-16T23:25:35.172Z,52.40
2023-02-16T23:28:08.837Z,51.75
2023-02-16T23:30:56.319Z,51.88
2023-02-16T23:33:32.644Z,51.71
2023-02-16T23:36:13.205Z,51.82
2023-02-16T23:38:47.541Z,51.67
2023-02-16T23:41:29.581Z,51.60
2023-02-16T23:44:12.416Z,51.47
2023-02-16T23:46:58.215Z,52.02
2023-02-16T23:49:31.709Z,51.41
2023-02-16T23:52:15.852Z,51.36
2023-02-16T23:54:55.561Z,51.09
2023-02-16T23:57:30.995Z,50.93
